createdAt,value
2023-04-22T00:00:48.789Z,4.00
2023-04-22T00:03:36.560Z,4.07
2023-04-22T00:06:24.338Z,4.80
2023-04-22T00:09:12.059Z,4.57
2023-04-22T00:11:59.684Z,4.80
2023-04-22T00:14:47.096Z,4.43
2023-04-22T00:17:34.704Z,4.30
2023-04-22T00:20:22.724Z,5.27
2023-04-22T00:23:13.103Z,3.93
2023-04-22T00:26:02.169Z,4.27
2023-04-22T00:28:49.667Z,3.70
2023-04-22T00:31:37.242Z,3.73
2023-04-22T00:34:24.752Z,3.80
2023-04-22T00:37:12.486Z,3.90
2023-04-22T00:40:00.018Z,4.07
2023-04-22T00:42:51.066Z,4.50
2023-04-22T00:45:40.111Z,5.00
2023-04-22T00:48:28.973Z,5.67
2023-04-22T00:51:16.685Z,6.90
2023-04-22T00:54:06.095Z,12.33
2023-04-22T00:56:53.719Z,7.20
2023-04-22T00:59:42.695Z,8.00
2023-04-22T01:02:30.706Z,6.60
2023-04-22T01:05:18.513Z,5.80
2023-04-22T01:08:05.936Z,5.53
2023-04-22T01:10:54.197Z,5.17
2023-04-22T01:13:42.632Z,4.17
2023-04-22T01:16:34.316Z,4.23
2023-04-22T01:19:22.661Z,4.60
2023-04-22T01:22:14.302Z,4.70
2023-04-22T01:25:04.030Z,4.30
2023-04-22T01:27:51.888Z,3.77
2023-04-22T01:30:40.906Z,4.00
2023-04-22T01:33:28.790Z,2.93
2023-04-22T01:36:17.727Z,3.47
2023-04-22T01:39:05.341Z,3.93
2023-04-22T01:41:53.681Z,3.57
2023-04-22T01:44:41.966Z,4.27
2023-04-22T01:47:30.004Z,3.67
2023-04-22T01:50:17.955Z,3.73
2023-04-22T01:53:08.823Z,3.47
2023-04-22T01:55:56.501Z,3.00
2023-04-22T01:58:44.464Z,3.00
2023-04-22T02:01:31.920Z,3.03
2023-04-22T02:04:19.950Z,4.00
2023-04-22T02:07:07.443Z,3.17
2023-04-22T02:09:55.082Z,3.20
2023-04-22T02:12:42.518Z,3.73
2023-04-22T02:15:30.666Z,3.40
2023-04-22T02:18:19.671Z,4.03
2023-04-22T02:21:07.132Z,3.80
2023-04-22T02:23:54.603Z,2.83
2023-04-22T02:26:43.555Z,3.63
2023-04-22T02:29:32.298Z,4.10
2023-04-22T02:32:19.833Z,3.43
2023-04-22T02:35:08.029Z,3.20
2023-04-22T02:37:55.671Z,3.57
2023-04-22T02:40:43.225Z,3.33
2023-04-22T02:43:30.707Z,2.70
2023-04-22T02:46:18.197Z,2.73
2023-04-22T02:49:05.888Z,3.63
2023-04-22T02:51:53.374Z,3.13
2023-04-22T02:54:40.893Z,3.23
2023-04-22T02:57:28.400Z,3.40
2023-04-22T03:00:16.076Z,3.83
2023-04-22T03:03:03.749Z,3.43
2023-04-22T03:05:51.380Z,3.43
2023-04-22T03:08:38.797Z,3.40
2023-04-22T03:11:26.733Z,3.40
2023-04-22T03:14:14.177Z,2.93
2023-04-22T03:17:01.764Z,2.87
2023-04-22T03:19:49.353Z,3.00
2023-04-22T03:22:36.810Z,4.07
2023-04-22T03:25:24.303Z,3.00
2023-04-22T03:28:11.859Z,3.80
2023-04-22T03:30:59.325Z,3.30
2023-04-22T03:33:46.772Z,3.40
2023-04-22T03:36:34.260Z,3.27
2023-04-22T03:39:21.922Z,3.17
2023-04-22T03:42:11.211Z,4.00
2023-04-22T03:44:58.875Z,2.97
2023-04-22T03:47:46.390Z,3.60
2023-04-22T03:50:34.305Z,3.33
2023-04-22T03:53:21.853Z,3.57
2023-04-22T03:56:09.290Z,3.93
2023-04-22T03:58:56.704Z,3.47
2023-04-22T04:01:46.595Z,2.67
2023-04-22T04:04:35.188Z,3.53
2023-04-22T04:07:23.014Z,3.73
2023-04-22T04:10:12.020Z,3.03
2023-04-22T04:12:59.453Z,2.70
2023-04-22T04:15:47.455Z,3.63
2023-04-22T04:18:34.949Z,3.20
2023-04-22T04:21:22.425Z,4.13
2023-04-22T04:24:09.811Z,4.00
2023-04-22T04:26:58.244Z,3.83
2023-04-22T04:29:45.739Z,3.30
2023-04-22T04:32:34.524Z,3.43
2023-04-22T04:35:22.109Z,3.67
2023-04-22T04:38:09.613Z,3.60
2023-04-22T04:40:57.109Z,3.83
2023-04-22T04:43:46.628Z,4.60
2023-04-22T04:46:34.865Z,4.43
2023-04-22T04:49:22.952Z,4.80
2023-04-22T04:52:11.974Z,3.63
2023-04-22T04:54:59.605Z,4.23
2023-04-22T04:57:47.655Z,3.30
2023-04-22T05:00:35.135Z,3.47
2023-04-22T05:03:22.756Z,4.30
2023-04-22T05:06:10.765Z,4.80
2023-04-22T05:08:58.737Z,4.45
2023-04-22T05:11:46.157Z,4.25
2023-04-22T05:14:33.667Z,4.05
2023-04-22T05:17:21.840Z,4.65
2023-04-22T05:20:09.915Z,5.00
2023-04-22T05:22:57.406Z,5.05
2023-04-22T05:25:45.064Z,4.95
2023-04-22T05:28:32.477Z,3.25
2023-04-22T05:31:20.025Z,4.25
2023-04-22T05:34:07.779Z,3.95
2023-04-22T05:36:55.768Z,3.90
2023-04-22T05:39:43.198Z,4.72
2023-04-22T05:42:30.665Z,4.20
2023-04-22T05:45:18.342Z,3.92
2023-04-22T05:48:05.997Z,3.95
2023-04-22T05:50:54.540Z,4.30
2023-04-22T05:53:45.101Z,3.63
2023-04-22T05:56:32.757Z,3.50
2023-04-22T05:59:21.663Z,4.40
2023-04-22T06:02:09.466Z,3.63
2023-04-22T06:04:57.333Z,3.45
2023-04-22T06:07:45.357Z,4.20
2023-04-22T06:10:32.871Z,2.95
2023-04-22T06:13:20.332Z,2.85
2023-04-22T06:18:56.458Z,2.97
2023-04-22T06:21:43.979Z,2.38
2023-04-22T06:24:31.509Z,3.30
2023-04-22T06:27:19.032Z,2.20
2023-04-22T06:30:07.687Z,3.13
2023-04-22T06:32:56.536Z,2.40
2023-04-22T06:35:44.333Z,2.65
2023-04-22T06:38:31.928Z,2.93
2023-04-22T06:41:19.568Z,2.72
2023-04-22T06:44:07.004Z,2.75
2023-04-22T06:46:55.877Z,2.75
2023-04-22T06:49:45.640Z,2.50
2023-04-22T06:52:33.196Z,2.50
2023-04-22T06:55:21.036Z,2.53
2023-04-22T06:58:09.230Z,2.78
2023-04-22T07:00:56.672Z,2.83
2023-04-22T07:03:44.328Z,3.03
2023-04-22T07:06:31.781Z,2.97
2023-04-22T07:09:19.270Z,2.83
2023-04-22T07:12:06.880Z,2.92
2023-04-22T07:14:54.424Z,2.78
2023-04-22T07:17:42.811Z,2.93
2023-04-22T07:20:30.400Z,2.92
2023-04-22T07:23:18.688Z,2.78
2023-04-22T07:26:06.281Z,3.28
2023-04-22T07:28:53.786Z,3.05
2023-04-22T07:31:41.622Z,2.70
2023-04-22T07:34:29.120Z,3.30
2023-04-22T07:37:16.637Z,3.33
2023-04-22T07:40:04.542Z,3.08
2023-04-22T07:42:52.067Z,3.53
2023-04-22T07:45:39.776Z,2.90
2023-04-22T07:48:27.363Z,2.70
2023-04-22T07:51:15.106Z,2.70
2023-04-22T07:54:02.578Z,2.58
2023-04-22T07:56:50.051Z,2.50
2023-04-22T07:59:37.613Z,2.70
2023-04-22T08:02:25.584Z,3.13
2023-04-22T08:05:13.331Z,2.83
2023-04-22T08:08:00.929Z,2.90
2023-04-22T08:10:48.476Z,2.72
2023-04-22T08:13:35.973Z,2.67
2023-04-22T08:16:23.608Z,2.25
2023-04-22T08:19:11.884Z,2.47
2023-04-22T08:21:59.336Z,3.08
2023-04-22T08:24:46.799Z,3.30
2023-04-22T08:27:34.341Z,2.80
2023-04-22T08:30:22.014Z,2.88
2023-04-22T08:33:09.560Z,2.83
2023-04-22T08:35:57.221Z,2.72
2023-04-22T08:38:44.777Z,2.88
2023-04-22T08:41:36.275Z,3.05
2023-04-22T08:44:24.272Z,2.63
2023-04-22T08:47:15.012Z,2.53
2023-04-22T08:50:04.419Z,3.00
2023-04-22T08:52:51.999Z,2.92
2023-04-22T08:55:43.690Z,3.15
2023-04-22T08:58:34.194Z,2.58
2023-04-22T09:01:23.562Z,3.20
2023-04-22T09:04:14.778Z,3.28
2023-04-22T09:07:03.495Z,2.38
2023-04-22T09:09:51.914Z,3.60
2023-04-22T09:12:41.059Z,2.40
2023-04-22T09:15:30.404Z,3.10
2023-04-22T09:18:19.520Z,3.10
2023-04-22T09:21:07.158Z,2.55
2023-04-22T09:23:56.954Z,2.90
2023-04-22T09:26:44.510Z,2.65
2023-04-22T09:29:32.094Z,2.40
2023-04-22T09:32:20.088Z,2.25
2023-04-22T09:35:08.243Z,3.03
2023-04-22T09:37:57.049Z,2.55
2023-04-22T09:40:44.908Z,2.20
2023-04-22T09:43:33.381Z,2.47
2023-04-22T09:46:24.470Z,2.80
2023-04-22T09:49:12.236Z,2.40
2023-04-22T09:51:59.754Z,2.65
2023-04-22T09:54:54.568Z,2.40
2023-04-22T09:57:43.593Z,2.45
2023-04-22T10:00:31.939Z,2.50
2023-04-22T10:03:19.798Z,2.55
2023-04-22T10:06:07.930Z,2.25
2023-04-22T10:08:55.775Z,2.55
2023-04-22T10:11:43.828Z,2.58
2023-04-22T10:14:31.336Z,2.13
2023-04-22T10:17:20.312Z,2.67
2023-04-22T10:20:17.394Z,2.85
2023-04-22T10:23:20.320Z,2.65
2023-04-22T10:26:07.787Z,2.35
2023-04-22T10:28:58.232Z,2.00
2023-04-22T10:32:17.990Z,2.13
2023-04-22T10:35:12.634Z,2.03
2023-04-22T10:38:00.220Z,2.20
2023-04-22T10:41:00.656Z,2.35
2023-04-22T10:43:58.373Z,2.30
2023-04-22T10:46:54.836Z,2.35
2023-04-22T10:49:44.461Z,2.10
2023-04-22T10:52:32.452Z,2.20
2023-04-22T10:55:20.254Z,2.28
2023-04-22T10:58:24.605Z,1.83
2023-04-22T11:01:16.100Z,2.17
2023-04-22T11:04:23.627Z,1.77
2023-04-22T11:07:26.988Z,2.40
2023-04-22T11:10:35.708Z,2.25
2023-04-22T11:13:23.505Z,1.90
2023-04-22T11:16:11.593Z,1.60
2023-04-22T11:18:59.840Z,1.73
2023-04-22T11:21:48.970Z,1.92
2023-04-22T11:24:37.638Z,1.45
2023-04-22T11:27:26.966Z,3.33
2023-04-22T11:30:23.974Z,2.08
2023-04-22T11:33:16.474Z,3.13
2023-04-22T11:36:04.429Z,1.70
2023-04-22T11:38:56.631Z,2.17
2023-04-22T11:41:44.202Z,3.50
2023-04-22T11:44:31.629Z,1.92
2023-04-22T11:47:19.723Z,2.30
2023-04-22T11:50:12.322Z,3.42
2023-04-22T11:53:19.906Z,1.60
2023-04-22T11:56:07.510Z,3.80
2023-04-22T11:58:55.116Z,1.83
2023-04-22T12:01:44.757Z,2.53
2023-04-22T12:04:42.421Z,2.15
2023-04-22T12:07:30.168Z,1.80
2023-04-22T12:10:17.742Z,1.88
2023-04-22T12:13:05.150Z,1.90
2023-04-22T12:16:02.937Z,1.92
2023-04-22T12:18:56.312Z,2.03
2023-04-22T12:21:43.972Z,1.30
2023-04-22T12:24:31.481Z,1.77
2023-04-22T12:27:19.016Z,2.30
2023-04-22T12:30:07.475Z,2.15
2023-04-22T12:32:55.120Z,1.95
2023-04-22T12:35:42.664Z,2.03
2023-04-22T12:38:30.436Z,2.00
2023-04-22T12:41:17.926Z,1.90
2023-04-22T12:44:05.644Z,2.10
2023-04-22T12:46:53.364Z,2.17
2023-04-22T12:49:41.435Z,2.03
2023-04-22T12:52:29.419Z,2.30
2023-04-22T12:55:18.236Z,1.60
2023-04-22T12:58:05.906Z,2.10
2023-04-22T13:00:53.463Z,2.20
2023-04-22T13:03:40.972Z,1.70
2023-04-22T13:06:29.249Z,2.08
2023-04-22T13:09:17.415Z,2.00
2023-04-22T13:12:05.238Z,1.67
2023-04-22T13:14:52.731Z,2.17
2023-04-22T13:17:40.769Z,1.85
2023-04-22T13:20:28.282Z,1.83
2023-04-22T13:23:17.166Z,1.75
2023-04-22T13:26:05.048Z,1.80
2023-04-22T13:28:52.637Z,1.83
2023-04-22T13:31:44.507Z,1.98
2023-04-22T13:34:32.055Z,1.92
2023-04-22T13:37:21.749Z,1.48
2023-04-22T13:40:09.950Z,1.38
2023-04-22T13:42:57.591Z,1.63
2023-04-22T13:45:45.710Z,2.00
2023-04-22T13:48:33.243Z,1.95
2023-04-22T13:51:20.867Z,1.55
2023-04-22T13:54:08.485Z,1.60
2023-04-22T13:56:55.940Z,2.28
2023-04-22T13:59:43.424Z,1.40
2023-04-22T14:02:30.992Z,1.73
2023-04-22T14:05:18.686Z,1.70
2023-04-22T14:08:06.512Z,1.50
2023-04-22T14:10:55.060Z,1.45
2023-04-22T14:13:42.693Z,1.45
2023-04-22T14:16:30.177Z,1.52
2023-04-22T14:19:17.788Z,1.48
2023-04-22T14:22:05.700Z,1.70
2023-04-22T14:24:53.284Z,1.45
2023-04-22T14:27:40.778Z,1.50
2023-04-22T14:30:28.342Z,1.50
2023-04-22T14:33:15.946Z,1.42
2023-04-22T14:36:03.698Z,1.45
2023-04-22T14:38:51.257Z,1.20
2023-04-22T14:41:39.083Z,1.33
2023-04-22T14:44:26.977Z,1.20
2023-04-22T14:47:14.464Z,1.27
2023-04-22T14:50:02.626Z,1.40
2023-04-22T14:52:51.702Z,1.30
2023-04-22T14:55:39.312Z,1.60
2023-04-22T14:58:31.311Z,1.30
2023-04-22T15:01:20.819Z,1.30
2023-04-22T15:04:08.414Z,1.27
2023-04-22T15:06:57.730Z,1.08
2023-04-22T15:09:45.201Z,1.48
2023-04-22T15:12:32.705Z,1.30
2023-04-22T15:15:21.448Z,1.52
2023-04-22T15:18:09.181Z,1.33
2023-04-22T15:20:56.644Z,1.35
2023-04-22T15:23:44.251Z,1.60
2023-04-22T15:26:32.605Z,0.95
2023-04-22T15:29:21.199Z,1.33
2023-04-22T15:32:08.658Z,1.08
2023-04-22T15:34:56.190Z,0.98
2023-04-22T15:37:45.925Z,1.33
2023-04-22T15:40:33.545Z,1.17
2023-04-22T15:43:21.150Z,1.40
2023-04-22T15:46:09.872Z,1.15
2023-04-22T15:48:57.678Z,1.30
2023-04-22T15:51:45.330Z,1.10
2023-04-22T15:54:32.943Z,1.42
2023-04-22T15:57:20.496Z,0.98
2023-04-22T16:00:13.686Z,1.13
2023-04-22T16:03:02.994Z,1.42
2023-04-22T16:05:50.599Z,1.40
2023-04-22T16:08:41.173Z,1.13
2023-04-22T16:11:30.323Z,1.23
2023-04-22T16:14:18.069Z,1.90
2023-04-22T16:17:06.649Z,1.25
2023-04-22T16:19:55.422Z,1.30
2023-04-22T16:22:42.819Z,1.50
2023-04-22T16:25:30.413Z,1.50
2023-04-22T16:28:18.052Z,1.70
2023-04-22T16:31:05.606Z,1.70
2023-04-22T16:33:53.198Z,1.83
2023-04-22T16:36:41.578Z,1.20
2023-04-22T16:39:30.447Z,1.52
2023-04-22T16:42:18.121Z,1.60
2023-04-22T16:45:06.750Z,1.67
2023-04-22T16:47:54.228Z,1.80
2023-04-22T16:50:41.797Z,1.40
2023-04-22T16:53:30.008Z,1.40
2023-04-22T16:56:17.399Z,1.95
2023-04-22T16:59:05.002Z,1.67
2023-04-22T17:01:52.499Z,1.63
2023-04-22T17:04:40.018Z,1.58
2023-04-22T17:07:27.461Z,1.70
2023-04-22T17:10:14.935Z,1.90
2023-04-22T17:13:03.123Z,1.60
2023-04-22T17:15:50.778Z,1.77
2023-04-22T17:18:38.573Z,1.60
2023-04-22T17:21:27.142Z,1.75
2023-04-22T17:24:14.651Z,1.33
2023-04-22T17:27:03.023Z,1.30
2023-04-22T17:29:50.666Z,1.50
2023-04-22T17:32:38.244Z,1.48
2023-04-22T17:35:25.963Z,1.30
2023-04-22T17:38:14.175Z,1.35
2023-04-22T17:41:01.741Z,1.42
2023-04-22T17:43:49.210Z,1.20
2023-04-22T17:46:36.805Z,1.30
2023-04-22T17:49:24.409Z,1.38
2023-04-22T17:52:12.032Z,1.65
2023-04-22T17:55:00.012Z,1.83
2023-04-22T17:57:47.631Z,1.70
2023-04-22T18:00:37.678Z,1.63
2023-04-22T18:03:26.372Z,1.73
2023-04-22T18:06:14.051Z,1.48
2023-04-22T18:09:01.651Z,1.20
2023-04-22T18:11:49.259Z,1.10
2023-04-22T18:14:36.861Z,1.30
2023-04-22T18:17:24.611Z,1.15
2023-04-22T18:20:18.560Z,1.10
2023-04-22T18:23:06.685Z,2.13
2023-04-22T18:25:54.572Z,1.55
2023-04-22T18:28:43.589Z,1.65
2023-04-22T18:31:31.138Z,1.65
2023-04-22T18:34:18.648Z,1.40
2023-04-22T18:37:06.082Z,1.77
2023-04-22T18:39:53.513Z,1.80
2023-04-22T18:42:44.734Z,1.55
2023-04-22T18:45:32.463Z,1.50
2023-04-22T18:48:20.500Z,1.50
2023-04-22T18:51:08.387Z,1.40
2023-04-22T18:53:56.492Z,1.58
2023-04-22T18:56:43.981Z,1.60
2023-04-22T18:59:31.511Z,1.60
2023-04-22T19:02:19.205Z,1.60
2023-04-22T19:05:07.037Z,1.83
2023-04-22T19:07:54.801Z,1.85
2023-04-22T19:10:42.277Z,2.30
2023-04-22T19:13:30.375Z,2.80
2023-04-22T19:16:18.165Z,3.97
2023-04-22T19:19:06.351Z,3.33
2023-04-22T19:21:53.911Z,2.53
2023-04-22T19:24:41.662Z,2.75
2023-04-22T19:27:29.217Z,2.90
2023-04-22T19:30:16.759Z,3.58
2023-04-22T19:33:04.400Z,1.98
2023-04-22T19:35:51.885Z,2.15
2023-04-22T19:38:39.417Z,1.98
2023-04-22T19:41:26.981Z,2.30
2023-04-22T19:44:14.493Z,2.20
2023-04-22T19:47:02.061Z,1.70
2023-04-22T19:49:50.179Z,3.22
2023-04-22T19:52:40.454Z,2.03
2023-04-22T19:55:28.352Z,2.45
2023-04-22T19:58:17.204Z,3.53
2023-04-22T20:01:04.944Z,3.50
2023-04-22T20:03:53.734Z,2.22
2023-04-22T20:06:47.553Z,2.57
2023-04-22T20:09:36.765Z,2.70
2023-04-22T20:12:28.730Z,3.75
2023-04-22T20:15:16.797Z,3.38
2023-04-22T20:18:04.573Z,4.57
2023-04-22T20:20:57.447Z,3.30
2023-04-22T20:23:46.987Z,4.17
2023-04-22T20:26:34.591Z,5.67
2023-04-22T20:29:23.387Z,6.20
2023-04-22T20:32:11.421Z,4.47
2023-04-22T20:34:59.672Z,6.87
2023-04-22T20:37:48.646Z,6.43
2023-04-22T20:40:36.639Z,6.23
2023-04-22T20:43:24.220Z,6.77
2023-04-22T20:46:11.646Z,4.70
2023-04-22T20:48:59.452Z,5.30
2023-04-22T20:51:47.088Z,6.33
2023-04-22T20:54:36.254Z,5.63
2023-04-22T20:57:23.840Z,4.70
2023-04-22T21:00:12.230Z,6.13
2023-04-22T21:03:00.981Z,5.83
2023-04-22T21:05:48.981Z,5.33
2023-04-22T21:08:39.451Z,5.17
2023-04-22T21:11:28.774Z,4.43
2023-04-22T21:14:18.560Z,4.37
2023-04-22T21:17:23.123Z,3.93
2023-04-22T21:20:12.330Z,3.10
2023-04-22T21:23:01.857Z,3.23
2023-04-22T21:25:51.999Z,3.27
2023-04-22T21:28:41.653Z,2.67
2023-04-22T21:31:29.526Z,2.90
2023-04-22T21:34:16.938Z,2.53
2023-04-22T21:37:07.122Z,3.53
2023-04-22T21:39:55.593Z,2.80
2023-04-22T21:42:43.061Z,2.57
2023-04-22T21:45:31.310Z,1.90
2023-04-22T21:48:18.762Z,2.17
2023-04-22T21:51:06.382Z,1.97
2023-04-22T21:53:53.920Z,1.77
2023-04-22T21:56:41.581Z,2.37
2023-04-22T21:59:29.044Z,2.37
2023-04-22T22:02:16.719Z,2.27
2023-04-22T22:05:05.056Z,2.10
2023-04-22T22:07:53.109Z,1.97
2023-04-22T22:10:43.279Z,2.23
2023-04-22T22:13:31.028Z,2.17
2023-04-22T22:16:19.336Z,1.90
2023-04-22T22:19:06.941Z,1.83
2023-04-22T22:21:54.416Z,2.27
2023-04-22T22:24:42.189Z,1.90
2023-04-22T22:27:29.910Z,2.28
2023-04-22T22:30:21.538Z,2.60
2023-04-22T22:33:09.071Z,2.53
2023-04-22T22:35:57.063Z,2.27
2023-04-22T22:38:44.570Z,2.43
2023-04-22T22:41:32.001Z,2.60
2023-04-22T22:44:19.407Z,1.90
2023-04-22T22:47:06.983Z,2.13
2023-04-22T22:49:54.461Z,2.00
2023-04-22T22:52:42.064Z,2.27
2023-04-22T22:55:29.492Z,2.50
2023-04-22T22:58:16.982Z,2.73
2023-04-22T23:01:05.214Z,2.97
2023-04-22T23:03:52.995Z,2.73
2023-04-22T23:06:40.699Z,2.30
2023-04-22T23:09:28.601Z,2.73
2023-04-22T23:12:16.086Z,2.97
2023-04-22T23:15:04.627Z,2.90
2023-04-22T23:17:52.490Z,3.10
2023-04-22T23:20:41.845Z,2.90
2023-04-22T23:23:30.965Z,3.17
2023-04-22T23:26:19.147Z,3.10
2023-04-22T23:29:07.983Z,3.13
2023-04-22T23:31:57.162Z,2.63
2023-04-22T23:34:49.992Z,2.97
2023-04-22T23:37:38.484Z,2.77
2023-04-22T23:40:25.983Z,3.07
2023-04-22T23:43:13.497Z,2.73
2023-04-22T23:46:03.587Z,2.50
2023-04-22T23:48:51.435Z,2.70
2023-04-22T23:51:38.995Z,2.63
2023-04-22T23:54:27.734Z,1.80
2023-04-22T23:57:16.536Z,2.10
